Saturday, August 02, 2014
02:34 UTC
  |  Log In   |  Register Free
Airport Search:

Norwood Memorial Airport
(KOWD)

Norwood Memorial Airport Diagram
No Airport Diagram Available

FAA data valid effective July 24, 2014 until September 18, 2014 (unless otherwise noted).

 
 
 
 
 
 
 
 
 
 
 
 
 
 

Current Aviation Weather for Norwood Memorial Airport (KOWD)

The most recent METAR observation for KOWD was updated at: 1853 UTC
METAR Summary (Translated METAR)
KOWD
281853Z 19012G15KT 10SM SCT030 BKN037 BKN046 27/21 A2949 RMK AO2 SLP985 T02720211
KBOS
(12.7 nm NE from KOWD)
281754Z 19010KT 10SM SCT037 BKN046 BKN060 27/19 A2949 RMK AO2 SLP987 60009 T02670194 10283 20183 58020
TAF Summary (Translated TAF)
KBOS
(12.7 nm NE from KOWD)
012209Z 0122/0224 20012KT P6SM SCT035 BKN060 FM020000 20007KT P6SM SCT050 BKN100 FM020900 14005KT P6SM SCT070 OVC120 FM021400 12006KT P6SM -RA OVC040 FM021600 11006KT 5SM -RA BR OVC025
KBED
(17.5 nm NW from KOWD)
012206Z 0122/0218 20008KT 5SM -TSRA SCT035 BKN050CB TEMPO 0122/0123 1SM +TSRA OVC035CB FM012300 21005KT P6SM SCT050 BKN070 FM020900 VRB03KT P6SM SCT070 BKN150 FM021200 VRB03KT P6SM OVC070 FM021600 VRB03KT P6SM -RA OVC050
  Airport Weather Conditions for KOWD

 Current Weather at OWD
69° F
Fair
South winds at 4.6 mph
OWD NOAA Radar

Pressure: 30.22 in
Humidity: 84%
Wind: South at 4.6 MPH (4 KT)
Dew Point: 64.0°F
Visibility: 10.00 mi


Airport Weather Forecast for KOWD

Translated METAR and TAF for KOWD
Translated METAR for KOWD (0228 UTC 02 August 2014)
found at http://aviationweather.gov/adds/metars/
 
METAR text: KOWD 020153Z 17004KT 10SM CLR 21/18 A3022 RMK AO2 SLP232 T02060178
Conditions at: KOWD (NORWOOD , MA, US) observed 0153 UTC 02 August 2014
Temperature: 20.6°C (69°F)
Dewpoint: 17.8°C (64°F) [RH = 84%]
Pressure (altimeter): 30.22 inches Hg (1023.5 mb)
[Sea-level pressure: 1023.2 mb]
Winds: from the S (170 degrees) at 5 MPH (4 knots; 2.1 m/s)
Visibility: 10 or more miles (16+ km)
Ceiling: at least 12,000 feet AGL
Clouds: sky clear below 12,000 feet AGL
Weather: no significant weather observed at this time
Translated TAF for KOWD

There is no translated TAF available for this airport

Find All Airport Services Find A Hotel Find A Rental Car Find A Golf Course Find A Restaurant $100 Hamburger



FBO's on the Field
FBO Company Facility Photos Services Transportation Aviation Fuel Prices: Prices include tax
Catering Weather Repair Courtesy Rental Type 100LL JetA JetA+ MOGAS 8087
 
FlightLevel Aviation

Currently rated 2.7 by 2 people
FS:Shell
Last Updated: Jul-30
Login to update fuel prices
SS:
Contact FlightLevel AviationMore FBO Information
 
Add another FBO Facility Photos Catering Weather Repair Courtesy Rental Type 100LL JetA JetA+ MOGAS 8087
Services Transportation Aviation Fuel Prices: Prices include tax


GlobalAir.com Airport Resource Center model-print
model-print
model-print
model-print